sensor_id;sensor_type;location;lat;lon;timestamp;pressure;altitude;pressure_sealevel;temperature;humidity
20971;BME280;10644;48.834;10.088;2023-05-01T00:01:33;96645.56;;;14.76;53.45
20971;BME280;10644;48.834;10.088;2023-05-01T00:03:58;96639.00;;;14.72;53.02
20971;BME280;10644;48.834;10.088;2023-05-01T00:06:23;96645.75;;;14.85;52.71
20971;BME280;10644;48.834;10.088;2023-05-01T00:08:49;96640.19;;;14.79;53.18
20971;BME280;10644;48.834;10.088;2023-05-01T00:11:14;96641.13;;;14.78;53.22
20971;BME280;10644;48.834;10.088;2023-05-01T00:13:40;96640.47;;;14.87;52.95
20971;BME280;10644;48.834;10.088;2023-05-01T00:16:10;96627.97;;;14.93;52.73
20971;BME280;10644;48.834;10.088;2023-05-01T00:18:36;96638.88;;;14.97;52.42
20971;BME280;10644;48.834;10.088;2023-05-01T00:21:01;96625.94;;;14.86;52.23
20971;BME280;10644;48.834;10.088;2023-05-01T00:23:27;96624.09;;;14.88;52.45
20971;BME280;10644;48.834;10.088;2023-05-01T00:25:55;96618.94;;;14.88;52.48
20971;BME280;10644;48.834;10.088;2023-05-01T00:28:20;96620.50;;;14.78;52.47
20971;BME280;10644;48.834;10.088;2023-05-01T00:30:46;96617.13;;;14.65;53.22
20971;BME280;10644;48.834;10.088;2023-05-01T00:33:11;96608.94;;;14.60;53.15
20971;BME280;10644;48.834;10.088;2023-05-01T00:35:37;96610.34;;;14.64;53.13
20971;BME280;10644;48.834;10.088;2023-05-01T00:38:02;96607.66;;;14.65;52.90
20971;BME280;10644;48.834;10.088;2023-05-01T00:40:27;96600.75;;;14.66;52.93
20971;BME280;10644;48.834;10.088;2023-05-01T00:42:53;96599.81;;;14.67;52.86
20971;BME280;10644;48.834;10.088;2023-05-01T00:45:19;96594.66;;;14.67;52.71
20971;BME280;10644;48.834;10.088;2023-05-01T00:47:45;96595.31;;;14.58;53.18
20971;BME280;10644;48.834;10.088;2023-05-01T00:50:11;96605.84;;;14.55;52.97
20971;BME280;10644;48.834;10.088;2023-05-01T00:52:37;96596.50;;;14.65;53.09
20971;BME280;10644;48.834;10.088;2023-05-01T00:55:03;96600.97;;;14.63;53.30
20971;BME280;10644;48.834;10.088;2023-05-01T00:57:31;96599.09;;;14.65;53.42
20971;BME280;10644;48.834;10.088;2023-05-01T00:59:57;96593.94;;;14.65;53.02
20971;BME280;10644;48.834;10.088;2023-05-01T01:02:23;96592.19;;;14.65;52.84
20971;BME280;10644;48.834;10.088;2023-05-01T01:04:48;96589.50;;;14.67;52.72
20971;BME280;10644;48.834;10.088;2023-05-01T01:07:39;96589.72;;;14.64;52.65
20971;BME280;10644;48.834;10.088;2023-05-01T01:10:20;96587.38;;;14.61;52.58
20971;BME280;10644;48.834;10.088;2023-05-01T01:15:24;96574.47;;;14.61;52.68
20971;BME280;10644;48.834;10.088;2023-05-01T01:20:30;96577.25;;;14.58;52.66
20971;BME280;10644;48.834;10.088;2023-05-01T01:23:18;96569.22;;;14.39;52.75
20971;BME280;10644;48.834;10.088;2023-05-01T01:26:00;96573.34;;;14.29;53.38
20971;BME280;10644;48.834;10.088;2023-05-01T01:31:20;96583.47;;;14.19;53.30
20971;BME280;10644;48.834;10.088;2023-05-01T01:34:03;96576.53;;;14.32;53.27
20971;BME280;10644;48.834;10.088;2023-05-01T01:36:38;96576.84;;;14.40;53.38
20971;BME280;10644;48.834;10.088;2023-05-01T01:41:52;96568.75;;;14.45;53.39
20971;BME280;10644;48.834;10.088;2023-05-01T01:44:43;96567.03;;;14.45;52.90
20971;BME280;10644;48.834;10.088;2023-05-01T01:47:11;96563.22;;;14.38;53.33
20971;BME280;10644;48.834;10.088;2023-05-01T01:49:43;96562.41;;;14.38;53.40
20971;BME280;10644;48.834;10.088;2023-05-01T01:52:14;96553.13;;;14.35;53.59
20971;BME280;10644;48.834;10.088;2023-05-01T01:54:45;96562.19;;;14.41;53.13
20971;BME280;10644;48.834;10.088;2023-05-01T01:57:15;96547.75;;;14.38;53.75
20971;BME280;10644;48.834;10.088;2023-05-01T01:59:41;96562.19;;;14.41;53.43
20971;BME280;10644;48.834;10.088;2023-05-01T02:02:08;96550.66;;;14.34;54.05
20971;BME280;10644;48.834;10.088;2023-05-01T02:04:36;96549.81;;;14.33;53.87
20971;BME280;10644;48.834;10.088;2023-05-01T02:07:04;96538.47;;;14.36;53.76
20971;BME280;10644;48.834;10.088;2023-05-01T02:09:31;96537.53;;;14.37;53.52
20971;BME280;10644;48.834;10.088;2023-05-01T02:11:59;96550.72;;;14.45;53.51
20971;BME280;10644;48.834;10.088;2023-05-01T02:14:28;96541.25;;;14.45;53.32
20971;BME280;10644;48.834;10.088;2023-05-01T02:16:54;96540.06;;;14.49;53.41
20971;BME280;10644;48.834;10.088;2023-05-01T02:19:21;96541.72;;;14.50;53.15
20971;BME280;10644;48.834;10.088;2023-05-01T02:21:48;96537.41;;;14.51;53.07
20971;BME280;10644;48.834;10.088;2023-05-01T02:24:14;96539.47;;;14.46;52.86
20971;BME280;10644;48.834;10.088;2023-05-01T02:26:42;96532.53;;;14.35;53.39
20971;BME280;10644;48.834;10.088;2023-05-01T02:29:08;96530.09;;;14.21;53.49
20971;BME280;10644;48.834;10.088;2023-05-01T02:31:34;96522.66;;;14.17;53.64
20971;BME280;10644;48.834;10.088;2023-05-01T02:33:59;96524.31;;;14.18;54.00
20971;BME280;10644;48.834;10.088;2023-05-01T02:36:24;96529.88;;;14.12;54.23
20971;BME280;10644;48.834;10.088;2023-05-01T02:38:52;96524.53;;;14.15;54.10
20971;BME280;10644;48.834;10.088;2023-05-01T02:41:19;96515.66;;;14.19;54.17
20971;BME280;10644;48.834;10.088;2023-05-01T02:43:48;96521.03;;;14.16;54.23
20971;BME280;10644;48.834;10.088;2023-05-01T02:46:17;96523.91;;;14.24;54.06
20971;BME280;10644;48.834;10.088;2023-05-01T02:48:45;96504.94;;;14.25;53.85
20971;BME280;10644;48.834;10.088;2023-05-01T02:51:11;96501.44;;;14.26;53.86
20971;BME280;10644;48.834;10.088;2023-05-01T02:53:37;96499.84;;;14.00;54.70
20971;BME280;10644;48.834;10.088;2023-05-01T02:56:04;96499.91;;;13.75;55.24
20971;BME280;10644;48.834;10.088;2023-05-01T02:58:30;96496.44;;;13.51;55.70
20971;BME280;10644;48.834;10.088;2023-05-01T03:00:56;96499.16;;;13.37;56.39
20971;BME280;10644;48.834;10.088;2023-05-01T03:03:22;96487.00;;;13.27;56.29
20971;BME280;10644;48.834;10.088;2023-05-01T03:05:50;96485.25;;;13.27;56.47
20971;BME280;10644;48.834;10.088;2023-05-01T03:08:16;96486.09;;;13.15;57.21
20971;BME280;10644;48.834;10.088;2023-05-01T03:10:44;96486.81;;;13.17;56.71
20971;BME280;10644;48.834;10.088;2023-05-01T03:13:11;96477.53;;;13.27;56.49
20971;BME280;10644;48.834;10.088;2023-05-01T03:15:37;96495.94;;;13.46;56.39
20971;BME280;10644;48.834;10.088;2023-05-01T03:18:03;96478.34;;;13.40;56.09
20971;BME280;10644;48.834;10.088;2023-05-01T03:20:29;96477.44;;;13.29;56.56
20971;BME280;10644;48.834;10.088;2023-05-01T03:22:56;96471.56;;;13.27;56.99
20971;BME280;10644;48.834;10.088;2023-05-01T03:25:24;96469.13;;;13.13;57.39
20971;BME280;10644;48.834;10.088;2023-05-01T03:27:49;96469.94;;;13.26;56.92
20971;BME280;10644;48.834;10.088;2023-05-01T03:30:15;96477.84;;;13.35;56.69
20971;BME280;10644;48.834;10.088;2023-05-01T03:32:43;96470.34;;;13.32;56.73
20971;BME280;10644;48.834;10.088;2023-05-01T03:35:11;96470.63;;;13.52;56.68
20971;BME280;10644;48.834;10.088;2023-05-01T03:37:38;96472.13;;;13.68;56.35
20971;BME280;10644;48.834;10.088;2023-05-01T03:40:04;96467.78;;;13.68;55.93
20971;BME280;10644;48.834;10.088;2023-05-01T03:42:30;96471.72;;;13.61;55.95
20971;BME280;10644;48.834;10.088;2023-05-01T03:44:55;96469.50;;;13.44;56.21
20971;BME280;10644;48.834;10.088;2023-05-01T03:47:21;96458.38;;;13.43;56.40
20971;BME280;10644;48.834;10.088;2023-05-01T03:49:46;96470.03;;;13.24;56.74
20971;BME280;10644;48.834;10.088;2023-05-01T03:52:14;96468.56;;;13.45;55.95
20971;BME280;10644;48.834;10.088;2023-05-01T03:54:40;96462.28;;;13.49;55.84
20971;BME280;10644;48.834;10.088;2023-05-01T03:57:05;96454.00;;;13.69;55.71
20971;BME280;10644;48.834;10.088;2023-05-01T03:59:31;96453.72;;;13.61;55.55
20971;BME280;10644;48.834;10.088;2023-05-01T04:01:57;96453.63;;;13.50;55.58
20971;BME280;10644;48.834;10.088;2023-05-01T04:04:22;96465.66;;;13.62;55.40
20971;BME280;10644;48.834;10.088;2023-05-01T04:06:47;96462.81;;;13.77;55.18
20971;BME280;10644;48.834;10.088;2023-05-01T04:09:14;96465.88;;;13.95;55.07
20971;BME280;10644;48.834;10.088;2023-05-01T04:11:41;96462.22;;;14.10;54.52
20971;BME280;10644;48.834;10.088;2023-05-01T04:14:10;96463.84;;;14.11;54.49
20971;BME280;10644;48.834;10.088;2023-05-01T04:16:36;96459.94;;;14.05;54.25
20971;BME280;10644;48.834;10.088;2023-05-01T04:19:01;96457.38;;;14.05;54.67
20971;BME280;10644;48.834;10.088;2023-05-01T04:21:26;96459.72;;;14.21;54.50
20971;BME280;10644;48.834;10.088;2023-05-01T04:23:52;96457.16;;;14.21;54.35
20971;BME280;10644;48.834;10.088;2023-05-01T04:26:17;96453.09;;;14.17;54.24
20971;BME280;10644;48.834;10.088;2023-05-01T04:28:45;96454.00;;;14.28;54.44
20971;BME280;10644;48.834;10.088;2023-05-01T04:31:14;96443.63;;;14.17;54.60
20971;BME280;10644;48.834;10.088;2023-05-01T04:33:40;96458.00;;;14.09;55.16
20971;BME280;10644;48.834;10.088;2023-05-01T04:36:07;96451.06;;;13.86;54.98
20971;BME280;10644;48.834;10.088;2023-05-01T04:38:33;96454.47;;;13.86;55.22
20971;BME280;10644;48.834;10.088;2023-05-01T04:41:01;96459.47;;;14.00;55.01
20971;BME280;10644;48.834;10.088;2023-05-01T04:43:26;96461.03;;;14.14;54.74
20971;BME280;10644;48.834;10.088;2023-05-01T04:45:52;96462.00;;;13.89;54.19
20971;BME280;10644;48.834;10.088;2023-05-01T04:48:18;96453.94;;;13.94;54.63
20971;BME280;10644;48.834;10.088;2023-05-01T04:50:43;96466.03;;;14.04;54.33
20971;BME280;10644;48.834;10.088;2023-05-01T04:53:09;96466.94;;;13.80;54.37
20971;BME280;10644;48.834;10.088;2023-05-01T04:55:37;96468.19;;;13.87;54.63
20971;BME280;10644;48.834;10.088;2023-05-01T04:58:02;96463.47;;;13.81;54.16
20971;BME280;10644;48.834;10.088;2023-05-01T05:00:29;96466.31;;;13.89;54.20
20971;BME280;10644;48.834;10.088;2023-05-01T05:02:55;96468.19;;;13.74;54.38
20971;BME280;10644;48.834;10.088;2023-05-01T05:05:20;96469.06;;;13.50;54.71
20971;BME280;10644;48.834;10.088;2023-05-01T05:07:48;96468.13;;;13.63;54.63
20971;BME280;10644;48.834;10.088;2023-05-01T05:10:14;96468.91;;;13.76;54.61
20971;BME280;10644;48.834;10.088;2023-05-01T05:12:39;96479.44;;;13.97;54.39
20971;BME280;10644;48.834;10.088;2023-05-01T05:15:06;96470.50;;;13.90;54.74
20971;BME280;10644;48.834;10.088;2023-05-01T05:17:31;96480.47;;;13.94;54.94
20971;BME280;10644;48.834;10.088;2023-05-01T05:19:57;96469.78;;;14.00;54.95
20971;BME280;10644;48.834;10.088;2023-05-01T05:22:22;96471.84;;;13.95;54.90
20971;BME280;10644;48.834;10.088;2023-05-01T05:24:53;96473.78;;;13.92;54.74
20971;BME280;10644;48.834;10.088;2023-05-01T05:27:19;96477.44;;;14.13;54.66
20971;BME280;10644;48.834;10.088;2023-05-01T05:29:45;96477.41;;;14.25;54.85
20971;BME280;10644;48.834;10.088;2023-05-01T05:32:10;96466.34;;;14.36;55.16
20971;BME280;10644;48.834;10.088;2023-05-01T05:34:36;96477.41;;;14.49;54.70
20971;BME280;10644;48.834;10.088;2023-05-01T05:37:01;96467.81;;;14.51;54.26
20971;BME280;10644;48.834;10.088;2023-05-01T05:39:26;96466.28;;;14.48;54.35
20971;BME280;10644;48.834;10.088;2023-05-01T05:41:54;96464.78;;;14.57;54.20
20971;BME280;10644;48.834;10.088;2023-05-01T05:44:19;96470.06;;;14.66;54.40
20971;BME280;10644;48.834;10.088;2023-05-01T05:46:47;96456.34;;;14.55;54.21
20971;BME280;10644;48.834;10.088;2023-05-01T05:49:12;96468.75;;;14.50;54.39
20971;BME280;10644;48.834;10.088;2023-05-01T05:51:38;96465.47;;;14.59;54.27
20971;BME280;10644;48.834;10.088;2023-05-01T05:54:03;96465.75;;;14.67;54.18
20971;BME280;10644;48.834;10.088;2023-05-01T05:56:29;96467.50;;;14.66;54.66
20971;BME280;10644;48.834;10.088;2023-05-01T05:58:54;96463.66;;;14.72;54.77
20971;BME280;10644;48.834;10.088;2023-05-01T06:01:19;96467.03;;;14.72;54.55
20971;BME280;10644;48.834;10.088;2023-05-01T06:03:44;96469.03;;;14.69;54.28
20971;BME280;10644;48.834;10.088;2023-05-01T06:06:10;96461.72;;;14.52;54.49
20971;BME280;10644;48.834;10.088;2023-05-01T06:08:35;96458.56;;;14.25;54.49
20971;BME280;10644;48.834;10.088;2023-05-01T06:11:01;96457.31;;;14.18;54.42
20971;BME280;10644;48.834;10.088;2023-05-01T06:13:27;96448.25;;;14.25;53.66
20971;BME280;10644;48.834;10.088;2023-05-01T06:15:52;96455.63;;;14.06;54.89
20971;BME280;10644;48.834;10.088;2023-05-01T06:18:18;96457.13;;;13.85;55.51
20971;BME280;10644;48.834;10.088;2023-05-01T06:20:43;96459.63;;;13.86;55.24
20971;BME280;10644;48.834;10.088;2023-05-01T06:23:08;96446.84;;;13.85;56.09
20971;BME280;10644;48.834;10.088;2023-05-01T06:25:34;96452.06;;;13.96;55.47
20971;BME280;10644;48.834;10.088;2023-05-01T06:28:00;96452.31;;;13.80;55.90
20971;BME280;10644;48.834;10.088;2023-05-01T06:30:26;96454.56;;;13.85;56.36
20971;BME280;10644;48.834;10.088;2023-05-01T06:32:52;96441.03;;;13.70;56.64
20971;BME280;10644;48.834;10.088;2023-05-01T06:35:17;96450.16;;;13.87;56.38
20971;BME280;10644;48.834;10.088;2023-05-01T06:37:42;96453.09;;;13.93;56.11
20971;BME280;10644;48.834;10.088;2023-05-01T06:40:08;96457.63;;;13.90;56.82
20971;BME280;10644;48.834;10.088;2023-05-01T06:42:35;96454.00;;;14.05;56.90
20971;BME280;10644;48.834;10.088;2023-05-01T06:45:01;96459.13;;;13.81;57.55
20971;BME280;10644;48.834;10.088;2023-05-01T06:47:27;96447.53;;;13.63;58.12
20971;BME280;10644;48.834;10.088;2023-05-01T06:49:53;96465.31;;;13.66;58.87
20971;BME280;10644;48.834;10.088;2023-05-01T06:52:18;96464.88;;;13.85;58.15
20971;BME280;10644;48.834;10.088;2023-05-01T06:54:43;96469.03;;;13.98;57.82
20971;BME280;10644;48.834;10.088;2023-05-01T06:57:08;96471.56;;;14.11;57.75
20971;BME280;10644;48.834;10.088;2023-05-01T06:59:34;96463.94;;;14.22;57.38
20971;BME280;10644;48.834;10.088;2023-05-01T07:01:59;96468.66;;;14.28;57.08
20971;BME280;10644;48.834;10.088;2023-05-01T07:04:25;96470.09;;;14.32;57.02
20971;BME280;10644;48.834;10.088;2023-05-01T07:06:50;96472.38;;;14.24;57.46
20971;BME280;10644;48.834;10.088;2023-05-01T07:09:15;96473.38;;;14.34;56.80
20971;BME280;10644;48.834;10.088;2023-05-01T07:11:43;96467.63;;;14.30;56.73
20971;BME280;10644;48.834;10.088;2023-05-01T07:14:09;96489.53;;;14.36;56.57
20971;BME280;10644;48.834;10.088;2023-05-01T07:16:34;96482.19;;;14.42;56.34
20971;BME280;10644;48.834;10.088;2023-05-01T07:18:59;96476.81;;;14.45;56.33
20971;BME280;10644;48.834;10.088;2023-05-01T07:21:25;96482.34;;;14.52;56.50
20971;BME280;10644;48.834;10.088;2023-05-01T07:23:50;96478.13;;;14.51;56.44
20971;BME280;10644;48.834;10.088;2023-05-01T07:26:16;96474.16;;;14.58;56.00
20971;BME280;10644;48.834;10.088;2023-05-01T07:28:41;96471.38;;;14.61;56.25
20971;BME280;10644;48.834;10.088;2023-05-01T07:31:09;96469.63;;;14.38;56.61
20971;BME280;10644;48.834;10.088;2023-05-01T07:33:35;96480.44;;;14.19;57.62
20971;BME280;10644;48.834;10.088;2023-05-01T07:36:00;96480.16;;;14.35;57.08
20971;BME280;10644;48.834;10.088;2023-05-01T07:38:25;96471.66;;;14.22;57.50
20971;BME280;10644;48.834;10.088;2023-05-01T07:40:53;96482.06;;;14.20;57.27
20971;BME280;10644;48.834;10.088;2023-05-01T07:43:18;96482.09;;;14.08;57.65
20971;BME280;10644;48.834;10.088;2023-05-01T07:45:56;96475.09;;;14.10;57.39
20971;BME280;10644;48.834;10.088;2023-05-01T07:48:22;96483.13;;;14.05;58.73
20971;BME280;10644;48.834;10.088;2023-05-01T07:50:47;96483.53;;;14.12;58.39
20971;BME280;10644;48.834;10.088;2023-05-01T07:53:13;96486.19;;;14.23;57.55
20971;BME280;10644;48.834;10.088;2023-05-01T07:55:38;96493.28;;;14.32;58.01
20971;BME280;10644;48.834;10.088;2023-05-01T07:58:04;96491.19;;;14.01;58.50
20971;BME280;10644;48.834;10.088;2023-05-01T08:00:30;96482.97;;;13.96;58.42
20971;BME280;10644;48.834;10.088;2023-05-01T08:02:55;96489.13;;;14.06;58.23
20971;BME280;10644;48.834;10.088;2023-05-01T08:05:21;96493.91;;;14.23;57.89
20971;BME280;10644;48.834;10.088;2023-05-01T08:07:46;96484.88;;;14.41;57.33
20971;BME280;10644;48.834;10.088;2023-05-01T08:10:11;96491.50;;;14.56;56.77
20971;BME280;10644;48.834;10.088;2023-05-01T08:12:37;96494.38;;;14.75;56.46
20971;BME280;10644;48.834;10.088;2023-05-01T08:15:03;96491.16;;;14.60;57.25
20971;BME280;10644;48.834;10.088;2023-05-01T08:17:29;96491.25;;;14.59;57.07
20971;BME280;10644;48.834;10.088;2023-05-01T08:19:55;96497.50;;;14.67;57.05
20971;BME280;10644;48.834;10.088;2023-05-01T08:22:21;96499.53;;;14.75;56.53
20971;BME280;10644;48.834;10.088;2023-05-01T08:24:47;96483.25;;;14.74;56.60
20971;BME280;10644;48.834;10.088;2023-05-01T08:27:12;96500.50;;;14.85;56.74
20971;BME280;10644;48.834;10.088;2023-05-01T08:29:38;96494.88;;;14.91;56.86
20971;BME280;10644;48.834;10.088;2023-05-01T08:32:03;96487.34;;;14.77;56.95
20971;BME280;10644;48.834;10.088;2023-05-01T08:34:28;96503.72;;;14.76;57.62
20971;BME280;10644;48.834;10.088;2023-05-01T08:36:54;96496.91;;;14.64;57.85
20971;BME280;10644;48.834;10.088;2023-05-01T08:39:19;96493.91;;;14.81;56.86
20971;BME280;10644;48.834;10.088;2023-05-01T08:41:45;96493.81;;;14.82;57.87
20971;BME280;10644;48.834;10.088;2023-05-01T08:44:13;96497.88;;;14.74;58.17
20971;BME280;10644;48.834;10.088;2023-05-01T08:46:54;96498.47;;;14.43;59.10
20971;BME280;10644;48.834;10.088;2023-05-01T08:49:22;96499.56;;;14.28;59.58
20971;BME280;10644;48.834;10.088;2023-05-01T08:51:50;96494.41;;;14.51;57.97
20971;BME280;10644;48.834;10.088;2023-05-01T08:54:18;96487.03;;;14.58;58.15
20971;BME280;10644;48.834;10.088;2023-05-01T08:56:45;96498.72;;;14.74;58.16
20971;BME280;10644;48.834;10.088;2023-05-01T08:59:12;96491.75;;;14.98;57.61
20971;BME280;10644;48.834;10.088;2023-05-01T09:01:40;96491.88;;;15.19;57.19
20971;BME280;10644;48.834;10.088;2023-05-01T09:04:06;96491.91;;;15.30;57.18
20971;BME280;10644;48.834;10.088;2023-05-01T09:06:32;96487.91;;;15.26;56.79
20971;BME280;10644;48.834;10.088;2023-05-01T09:09:00;96492.59;;;15.32;57.13
20971;BME280;10644;48.834;10.088;2023-05-01T09:11:26;96488.13;;;15.12;57.63
20971;BME280;10644;48.834;10.088;2023-05-01T09:13:52;96483.56;;;15.15;57.03
20971;BME280;10644;48.834;10.088;2023-05-01T09:16:18;96490.47;;;15.26;57.26
20971;BME280;10644;48.834;10.088;2023-05-01T09:18:44;96491.94;;;15.41;56.72
20971;BME280;10644;48.834;10.088;2023-05-01T09:21:10;96487.47;;;15.54;56.33
20971;BME280;10644;48.834;10.088;2023-05-01T09:23:36;96490.66;;;15.57;56.24
20971;BME280;10644;48.834;10.088;2023-05-01T09:26:07;96487.25;;;15.68;56.46
20971;BME280;10644;48.834;10.088;2023-05-01T09:28:39;96493.09;;;15.81;56.29
20971;BME280;10644;48.834;10.088;2023-05-01T09:36:18;96490.25;;;16.06;55.07
20971;BME280;10644;48.834;10.088;2023-05-01T09:38:44;96488.56;;;16.16;54.83
20971;BME280;10644;48.834;10.088;2023-05-01T09:41:09;96482.22;;;16.20;54.71
20971;BME280;10644;48.834;10.088;2023-05-01T09:43:37;96479.22;;;16.04;54.96
20971;BME280;10644;48.834;10.088;2023-05-01T09:46:05;96483.19;;;16.19;54.44
20971;BME280;10644;48.834;10.088;2023-05-01T09:48:31;96478.66;;;16.32;54.52
20971;BME280;10644;48.834;10.088;2023-05-01T09:50:57;96471.16;;;16.40;54.22
20971;BME280;10644;48.834;10.088;2023-05-01T09:53:37;96475.50;;;16.39;54.41
20971;BME280;10644;48.834;10.088;2023-05-01T09:56:03;96469.31;;;16.20;54.96
20971;BME280;10644;48.834;10.088;2023-05-01T09:58:28;96470.69;;;15.70;57.25
20971;BME280;10644;48.834;10.088;2023-05-01T10:00:53;96471.97;;;15.76;57.26
20971;BME280;10644;48.834;10.088;2023-05-01T10:03:19;96461.16;;;15.93;55.93
20971;BME280;10644;48.834;10.088;2023-05-01T10:05:45;96462.28;;;16.00;55.84
20971;BME280;10644;48.834;10.088;2023-05-01T10:08:11;96469.00;;;15.91;55.16
20971;BME280;10644;48.834;10.088;2023-05-01T10:10:40;96467.53;;;15.78;55.86
20971;BME280;10644;48.834;10.088;2023-05-01T10:13:14;96456.94;;;15.92;55.92
20971;BME280;10644;48.834;10.088;2023-05-01T10:15:39;96468.41;;;15.99;54.68
20971;BME280;10644;48.834;10.088;2023-05-01T10:18:06;96471.44;;;16.15;54.69
20971;BME280;10644;48.834;10.088;2023-05-01T10:20:34;96461.50;;;16.31;53.96
20971;BME280;10644;48.834;10.088;2023-05-01T10:23:01;96450.47;;;16.40;53.79
20971;BME280;10644;48.834;10.088;2023-05-01T10:25:28;96458.56;;;16.67;53.48
20971;BME280;10644;48.834;10.088;2023-05-01T10:27:54;96467.53;;;16.63;52.86
20971;BME280;10644;48.834;10.088;2023-05-01T10:30:21;96473.22;;;16.57;52.61
20971;BME280;10644;48.834;10.088;2023-05-01T10:32:47;96473.91;;;16.79;52.90
20971;BME280;10644;48.834;10.088;2023-05-01T10:35:22;96468.78;;;16.89;52.34
20971;BME280;10644;48.834;10.088;2023-05-01T10:37:59;96468.28;;;16.95;52.18
20971;BME280;10644;48.834;10.088;2023-05-01T10:43:23;96467.34;;;17.16;52.51
20971;BME280;10644;48.834;10.088;2023-05-01T10:45:52;96467.63;;;17.23;51.65
20971;BME280;10644;48.834;10.088;2023-05-01T10:48:53;96466.16;;;17.41;51.84
20971;BME280;10644;48.834;10.088;2023-05-01T10:51:21;96467.25;;;17.48;51.87
20971;BME280;10644;48.834;10.088;2023-05-01T10:53:49;96460.50;;;17.66;51.31
20971;BME280;10644;48.834;10.088;2023-05-01T10:59:00;96458.88;;;17.65;50.82
20971;BME280;10644;48.834;10.088;2023-05-01T11:01:47;96447.13;;;17.31;50.95
20971;BME280;10644;48.834;10.088;2023-05-01T11:09:47;96450.47;;;17.22;51.38
20971;BME280;10644;48.834;10.088;2023-05-01T11:15:09;96448.94;;;17.40;50.10
20971;BME280;10644;48.834;10.088;2023-05-01T11:20:06;96437.44;;;17.63;50.19
20971;BME280;10644;48.834;10.088;2023-05-01T11:22:33;96436.75;;;17.51;49.17
20971;BME280;10644;48.834;10.088;2023-05-01T11:24:59;96436.25;;;17.67;48.72
20971;BME280;10644;48.834;10.088;2023-05-01T11:27:25;96434.41;;;17.97;48.82
20971;BME280;10644;48.834;10.088;2023-05-01T11:29:52;96421.34;;;18.18;48.05
20971;BME280;10644;48.834;10.088;2023-05-01T11:32:23;96429.69;;;18.31;46.96
20971;BME280;10644;48.834;10.088;2023-05-01T11:34:49;96425.88;;;18.35;47.62
20971;BME280;10644;48.834;10.088;2023-05-01T11:37:15;96418.59;;;18.10;48.57
20971;BME280;10644;48.834;10.088;2023-05-01T11:39:50;96420.25;;;18.20;48.90
20971;BME280;10644;48.834;10.088;2023-05-01T11:42:20;96418.09;;;18.35;48.64
20971;BME280;10644;48.834;10.088;2023-05-01T11:45:07;96420.53;;;18.55;49.09
20971;BME280;10644;48.834;10.088;2023-05-01T11:47:35;96420.28;;;18.68;47.88
20971;BME280;10644;48.834;10.088;2023-05-01T11:50:00;96413.97;;;18.80;47.88
20971;BME280;10644;48.834;10.088;2023-05-01T11:52:27;96415.59;;;18.90;47.18
20971;BME280;10644;48.834;10.088;2023-05-01T11:54:53;96407.53;;;18.84;47.08
20971;BME280;10644;48.834;10.088;2023-05-01T11:57:18;96411.25;;;18.72;47.72
20971;BME280;10644;48.834;10.088;2023-05-01T11:59:47;96422.34;;;18.55;48.63
20971;BME280;10644;48.834;10.088;2023-05-01T12:02:19;96414.25;;;18.77;48.18
20971;BME280;10644;48.834;10.088;2023-05-01T12:04:47;96407.94;;;18.89;47.54
20971;BME280;10644;48.834;10.088;2023-05-01T12:07:22;96414.78;;;18.90;47.60
20971;BME280;10644;48.834;10.088;2023-05-01T12:09:49;96418.03;;;19.01;47.31
20971;BME280;10644;48.834;10.088;2023-05-01T12:12:14;96418.06;;;18.73;47.88
20971;BME280;10644;48.834;10.088;2023-05-01T12:14:40;96418.34;;;18.70;48.32
20971;BME280;10644;48.834;10.088;2023-05-01T12:17:06;96410.13;;;18.84;47.78
20971;BME280;10644;48.834;10.088;2023-05-01T12:19:33;96420.38;;;18.85;47.95
20971;BME280;10644;48.834;10.088;2023-05-01T12:22:07;96416.97;;;18.75;47.76
20971;BME280;10644;48.834;10.088;2023-05-01T12:24:33;96416.72;;;18.69;48.20
20971;BME280;10644;48.834;10.088;2023-05-01T12:27:00;96418.34;;;18.70;47.46
20971;BME280;10644;48.834;10.088;2023-05-01T12:29:25;96419.13;;;18.89;47.91
20971;BME280;10644;48.834;10.088;2023-05-01T12:32:03;96412.78;;;18.65;47.88
20971;BME280;10644;48.834;10.088;2023-05-01T12:34:29;96411.34;;;18.89;48.21
20971;BME280;10644;48.834;10.088;2023-05-01T12:36:56;96410.88;;;19.13;47.41
20971;BME280;10644;48.834;10.088;2023-05-01T12:39:22;96405.13;;;19.19;46.75
20971;BME280;10644;48.834;10.088;2023-05-01T12:41:48;96402.69;;;19.08;47.42
20971;BME280;10644;48.834;10.088;2023-05-01T12:44:22;96404.38;;;18.90;47.54
20971;BME280;10644;48.834;10.088;2023-05-01T12:47:07;96398.53;;;18.69;48.17
20971;BME280;10644;48.834;10.088;2023-05-01T12:49:34;96402.47;;;18.82;48.33
20971;BME280;10644;48.834;10.088;2023-05-01T12:52:04;96401.31;;;19.04;48.22
20971;BME280;10644;48.834;10.088;2023-05-01T12:54:36;96404.72;;;19.33;47.61
20971;BME280;10644;48.834;10.088;2023-05-01T12:59:35;96384.56;;;19.89;46.69
20971;BME280;10644;48.834;10.088;2023-05-01T13:02:03;96392.78;;;19.84;46.39
20971;BME280;10644;48.834;10.088;2023-05-01T13:04:28;96392.41;;;19.79;46.24
20971;BME280;10644;48.834;10.088;2023-05-01T13:06:55;96387.97;;;19.72;46.43
20971;BME280;10644;48.834;10.088;2023-05-01T13:09:25;96389.41;;;19.57;47.20
20971;BME280;10644;48.834;10.088;2023-05-01T13:12:00;96391.69;;;19.60;47.20
20971;BME280;10644;48.834;10.088;2023-05-01T13:14:27;96384.78;;;19.51;46.70
20971;BME280;10644;48.834;10.088;2023-05-01T13:16:58;96380.38;;;19.61;47.01
20971;BME280;10644;48.834;10.088;2023-05-01T13:19:27;96383.91;;;19.60;46.94
20971;BME280;10644;48.834;10.088;2023-05-01T13:21:56;96373.22;;;19.63;47.27
20971;BME280;10644;48.834;10.088;2023-05-01T13:24:22;96389.22;;;19.41;47.69
20971;BME280;10644;48.834;10.088;2023-05-01T13:26:55;96390.50;;;19.18;48.04